King of Scandinavia — OVOL2 — position and weather

sailwx.info

Track history (hours):
 
Tides and Currents Weather Stations Pressure Air Temp Water Temp Dewpoint Dewpoint Depression Visibility Wind Speed Wind Dir Waves Ship Positions

King of Scandinavia

Ship's website: http://www.dfds.co.uk/DSW/EN/OnBoard/na/KING.htm

Last reported at 2015-Mar-02 17:34 UTC. Time now 2015-Mar-02 19:05 UTC.
Position N 52°34' E 004°19'.

Length 166 m; beam 27.6 m; draft 6.2 m.

Type: Passenger vessel. MMSI: 220449000.

Date/timePositionNaut miles runAvg speedWind from/ knotsBaromVisibWave heightAir tempDewpointWater temp
2015-Mar-02 17:34N 52°34' E 004°19'1111.3
2015-Mar-02 16:34N 52°28' E 004°35'0 0.1
2015-Mar-02 15:31N 52°28' E 004°35'0 0.0
2015-Mar-02 14:31N 52°28' E 004°35'0 0.0
2015-Mar-02 13:28N 52°28' E 004°35'0 0.0
2015-Mar-02 12:31N 52°28' E 004°35'0 0.0
2015-Mar-02 11:31N 52°28' E 004°35'0 0.0
2015-Mar-02 10:22N 52°28' E 004°35'0 0.0
2015-Mar-02 09:31N 52°28' E 004°35'0 0.2
2015-Mar-02 08:33N 52°28' E 004°35'1111.1
2015-Mar-02 07:33N 52°34' E 004°20'16317.4
2015-Mar-01 22:12N 54°10' E 000°38'1117.7
2015-Mar-01 21:33N 54°14' E 000°20'1717.3
2015-Mar-01 20:33N 54°21' W 000°07'1717.4
2015-Mar-01 19:33N 54°33' W 000°29'1817.5
2015-Mar-01 18:33N 54°45' W 000°51'1817.8
2015-Mar-01 17:33N 54°57' W 001°14'12 1.2
2015-Mar-01 07:33N 54°51' W 000°55'3014.8
2015-Mar-01 05:34N 54°35' W 000°12'1616.0
2015-Mar-01 04:34N 54°26' E 000°11'1615.7
2015-Mar-01 03:34N 54°18' E 000°34'16916.8
2015-Feb-28 17:30N 52°35' E 004°18'1213.1
2015-Feb-28 16:33N 52°28' E 004°35'0 0.1
2015-Feb-28 15:33N 52°28' E 004°35'0 0.0
2015-Feb-28 14:33N 52°28' E 004°35'0 0.0
2015-Feb-28 13:27N 52°28' E 004°35'0 0.0
2015-Feb-28 12:33N 52°28' E 004°35'0 0.0
2015-Feb-28 11:30N 52°28' E 004°35'0 0.0
2015-Feb-28 10:33N 52°28' E 004°35'0 0.0
2015-Feb-28 09:33N 52°28' E 004°35'0 0.3
2015-Feb-28 08:34N 52°28' E 004°35'1515.0
2015-Feb-28 07:33N 52°37' E 004°15'1717.0
2015-Feb-28 06:33N 52°48' E 003°54'14217.6
2015-Feb-27 22:28N 54°13' E 000°42'1617.7
2015-Feb-27 21:33N 54°22' E 000°19'1817.6
2015-Feb-27 20:33N 54°32' W 000°06'1817.6
2015-Feb-27 19:33N 54°41' W 000°32'1817.5
2015-Feb-27 18:33N 54°51' W 000°57'1716.8
2015-Feb-27 17:33N 55°01' W 001°21'18 1.8
2015-Feb-27 07:30N 54°51' W 000°54'1914.9
2015-Feb-27 06:13N 54°40' W 000°27'1014.7
2015-Feb-27 05:32N 54°34' W 000°12'1414.8
2015-Feb-27 04:33N 54°27' E 000°09'1616.3
2015-Feb-27 03:33N 54°18' E 000°32'15216.8
2015-Feb-26 18:33N 52°48' E 003°58'1514.6
2015-Feb-26 17:33N 52°38' E 004°15'1514.5
2015-Feb-26 16:33N 52°28' E 004°33'1 1.3
2015-Feb-26 15:29N 52°28' E 004°35'0 0.0
2015-Feb-26 14:32N 52°28' E 004°35'0 0.0
2015-Feb-26 13:29N 52°28' E 004°35'0 0.0
2015-Feb-26 12:32N 52°28' E 004°35'0 0.0
2015-Feb-26 11:20N 52°28' E 004°35'0 0.0
2015-Feb-26 10:32N 52°28' E 004°35'0 0.0
2015-Feb-26 09:32N 52°28' E 004°35'0 0.5
2015-Feb-26 08:33N 52°28' E 004°34'1514.7
2015-Feb-26 07:33N 52°37' E 004°16'1616.2
2015-Feb-26 06:33N 52°48' E 003°56'14317.3
2015-Feb-25 22:18N 54°13' E 000°43'1317.2
2015-Feb-25 21:34N 54°20' E 000°25'1818.0
2015-Feb-25 20:33N 54°30' W 000°01'1817.8
2015-Feb-25 19:33N 54°40' W 000°27'1817.6
2015-Feb-25 18:33N 54°50' W 000°52'1817.5
2015-Feb-25 17:33N 54°59' W 001°18'15 1.5
2015-Feb-25 07:30N 54°51' W 000°56'2016.9
2015-Feb-25 06:20N 54°40' W 000°28'1317.3
2015-Feb-25 05:33N 54°32' W 000°09'1817.7
2015-Feb-25 04:33N 54°23' E 000°17'1818.0
2015-Feb-25 03:33N 54°13' E 000°43'16116.1
2015-Feb-24 17:33N 52°36' E 004°17'1313.1
2015-Feb-24 16:34N 52°28' E 004°34'1 0.6
2015-Feb-24 15:33N 52°28' E 004°35'0 0.0
2015-Feb-24 14:33N 52°28' E 004°35'0 0.0
2015-Feb-24 13:34N 52°28' E 004°35'0 0.0
2015-Feb-24 12:34N 52°28' E 004°35'0 0.0
2015-Feb-24 11:33N 52°28' E 004°35'0 0.0
2015-Feb-24 10:33N 52°28' E 004°35'0 0.0
2015-Feb-24 09:33N 52°28' E 004°35'0 0.2
2015-Feb-24 08:33N 52°28' E 004°35'1211.9
2015-Feb-24 07:33N 52°35' E 004°19'16217.3
2015-Feb-23 22:09N 54°13' E 000°43'1017.4
2015-Feb-23 21:33N 54°19' E 000°28'1817.7
2015-Feb-23 20:33N 54°29' E 000°02'1818.2
2015-Feb-23 19:34N 54°38' W 000°24'1918.5
2015-Feb-23 18:33N 54°49' W 000°51'1818.2
2015-Feb-23 17:33N 54°59' W 001°18'17 1.7
2015-Feb-23 07:33N 54°49' W 000°53'1817.2
2015-Feb-23 06:30N 54°40' W 000°26'1515.7
2015-Feb-23 05:33N 54°32' W 000°05'1616.0
2015-Feb-23 04:33N 54°23' E 000°18'1616.3
2015-Feb-23 03:33N 54°14' E 000°42'16216.2
2015-Feb-22 17:33N 52°36' E 004°18'1313.1
2015-Feb-22 16:33N 52°28' E 004°35'0 0.0
2015-Feb-22 15:28N 52°28' E 004°35'0 0.0
2015-Feb-22 14:28N 52°28' E 004°35'0 0.0
2015-Feb-22 13:31N 52°28' E 004°35'0 0.0
2015-Feb-22 12:31N 52°28' E 004°35'0 0.0
2015-Feb-22 11:28N 52°28' E 004°35'0 0.0
2015-Feb-22 10:31N 52°28' E 004°35'0 0.0
2015-Feb-22 09:31N 52°28' E 004°35'1 1.0
2015-Feb-22 08:33N 52°28' E 004°34'1616.3
2015-Feb-22 07:33N 52°38' E 004°13'15516.8
2015-Feb-21 22:22N 54°12' E 000°46'1417.5
2015-Feb-21 21:33N 54°19' E 000°26'1817.9
2015-Feb-21 20:33N 54°29' E 000°00'1818.4
2015-Feb-21 19:34N 54°39' W 000°26'1918.8
2015-Feb-21 18:33N 54°49' W 000°54'2018.9
2015-Feb-21 17:30N 55°00' W 001°22'18 1.8
2015-Feb-21 07:28N 54°51' W 000°56'1313.9
2015-Feb-21 06:33N 54°44' W 000°38'1615.9
2015-Feb-21 05:33N 54°35' W 000°15'1615.7
2015-Feb-21 04:33N 54°27' E 000°08'1616.2
2015-Feb-21 03:34N 54°18' E 000°31'  
Track history (hours):
 
Tides and Currents Weather Stations Pressure Air Temp Water Temp Dewpoint Dewpoint Depression Visibility Wind Speed Wind Dir Waves Ship Positions

King of Scandinavia

Ship's website: http://www.dfds.co.uk/DSW/EN/OnBoard/na/KING.htm

Last reported at 2015-Mar-02 17:34 UTC. Time now 2015-Mar-02 19:05 UTC.
Position N 52°34' E 004°19'.

Length 166 m; beam 27.6 m; draft 6.2 m.

Type: Passenger vessel. MMSI: 220449000.

Date/timePositionNaut miles runAvg speedWind from/ knotsBaromVisibWave heightAir tempDewpointWater temp
2015-Mar-02 17:34N 52°34' E 004°19'1111.3
2015-Mar-02 16:34N 52°28' E 004°35'0 0.1
2015-Mar-02 15:31N 52°28' E 004°35'0 0.0
2015-Mar-02 14:31N 52°28' E 004°35'0 0.0
2015-Mar-02 13:28N 52°28' E 004°35'0 0.0
2015-Mar-02 12:31N 52°28' E 004°35'0 0.0
2015-Mar-02 11:31N 52°28' E 004°35'0 0.0
2015-Mar-02 10:22N 52°28' E 004°35'0 0.0
2015-Mar-02 09:31N 52°28' E 004°35'0 0.2
2015-Mar-02 08:33N 52°28' E 004°35'1111.1
2015-Mar-02 07:33N 52°34' E 004°20'16317.4
2015-Mar-01 22:12N 54°10' E 000°38'1117.7
2015-Mar-01 21:33N 54°14' E 000°20'1717.3
2015-Mar-01 20:33N 54°21' W 000°07'1717.4
2015-Mar-01 19:33N 54°33' W 000°29'1817.5
2015-Mar-01 18:33N 54°45' W 000°51'1817.8
2015-Mar-01 17:33N 54°57' W 001°14'12 1.2
2015-Mar-01 07:33N 54°51' W 000°55'3014.8
2015-Mar-01 05:34N 54°35' W 000°12'1616.0
2015-Mar-01 04:34N 54°26' E 000°11'1615.7
2015-Mar-01 03:34N 54°18' E 000°34'16916.8
2015-Feb-28 17:30N 52°35' E 004°18'1213.1
2015-Feb-28 16:33N 52°28' E 004°35'0 0.1
2015-Feb-28 15:33N 52°28' E 004°35'0 0.0
2015-Feb-28 14:33N 52°28' E 004°35'0 0.0
2015-Feb-28 13:27N 52°28' E 004°35'0 0.0
2015-Feb-28 12:33N 52°28' E 004°35'0 0.0
2015-Feb-28 11:30N 52°28' E 004°35'0 0.0
2015-Feb-28 10:33N 52°28' E 004°35'0 0.0
2015-Feb-28 09:33N 52°28' E 004°35'0 0.3
2015-Feb-28 08:34N 52°28' E 004°35'1515.0
2015-Feb-28 07:33N 52°37' E 004°15'1717.0
2015-Feb-28 06:33N 52°48' E 003°54'14217.6
2015-Feb-27 22:28N 54°13' E 000°42'1617.7
2015-Feb-27 21:33N 54°22' E 000°19'1817.6
2015-Feb-27 20:33N 54°32' W 000°06'1817.6
2015-Feb-27 19:33N 54°41' W 000°32'1817.5
2015-Feb-27 18:33N 54°51' W 000°57'1716.8
2015-Feb-27 17:33N 55°01' W 001°21'18 1.8
2015-Feb-27 07:30N 54°51' W 000°54'1914.9
2015-Feb-27 06:13N 54°40' W 000°27'1014.7
2015-Feb-27 05:32N 54°34' W 000°12'1414.8
2015-Feb-27 04:33N 54°27' E 000°09'1616.3
2015-Feb-27 03:33N 54°18' E 000°32'15216.8
2015-Feb-26 18:33N 52°48' E 003°58'1514.6
2015-Feb-26 17:33N 52°38' E 004°15'1514.5
2015-Feb-26 16:33N 52°28' E 004°33'1 1.3
2015-Feb-26 15:29N 52°28' E 004°35'0 0.0
2015-Feb-26 14:32N 52°28' E 004°35'0 0.0
2015-Feb-26 13:29N 52°28' E 004°35'0 0.0
2015-Feb-26 12:32N 52°28' E 004°35'0 0.0
2015-Feb-26 11:20N 52°28' E 004°35'0 0.0
2015-Feb-26 10:32N 52°28' E 004°35'0 0.0
2015-Feb-26 09:32N 52°28' E 004°35'0 0.5
2015-Feb-26 08:33N 52°28' E 004°34'1514.7
2015-Feb-26 07:33N 52°37' E 004°16'1616.2
2015-Feb-26 06:33N 52°48' E 003°56'14317.3
2015-Feb-25 22:18N 54°13' E 000°43'1317.2
2015-Feb-25 21:34N 54°20' E 000°25'1818.0
2015-Feb-25 20:33N 54°30' W 000°01'1817.8
2015-Feb-25 19:33N 54°40' W 000°27'1817.6
2015-Feb-25 18:33N 54°50' W 000°52'1817.5
2015-Feb-25 17:33N 54°59' W 001°18'15 1.5
2015-Feb-25 07:30N 54°51' W 000°56'2016.9
2015-Feb-25 06:20N 54°40' W 000°28'1317.3
2015-Feb-25 05:33N 54°32' W 000°09'1817.7
2015-Feb-25 04:33N 54°23' E 000°17'1818.0
2015-Feb-25 03:33N 54°13' E 000°43'16116.1
2015-Feb-24 17:33N 52°36' E 004°17'1313.1
2015-Feb-24 16:34N 52°28' E 004°34'1 0.6
2015-Feb-24 15:33N 52°28' E 004°35'0 0.0
2015-Feb-24 14:33N 52°28' E 004°35'0 0.0
2015-Feb-24 13:34N 52°28' E 004°35'0 0.0
2015-Feb-24 12:34N 52°28' E 004°35'0 0.0
2015-Feb-24 11:33N 52°28' E 004°35'0 0.0
2015-Feb-24 10:33N 52°28' E 004°35'0 0.0
2015-Feb-24 09:33N 52°28' E 004°35'0 0.2
2015-Feb-24 08:33N 52°28' E 004°35'1211.9
2015-Feb-24 07:33N 52°35' E 004°19'16217.3
2015-Feb-23 22:09N 54°13' E 000°43'1017.4
2015-Feb-23 21:33N 54°19' E 000°28'1817.7
2015-Feb-23 20:33N 54°29' E 000°02'1818.2
2015-Feb-23 19:34N 54°38' W 000°24'1918.5
2015-Feb-23 18:33N 54°49' W 000°51'1818.2
2015-Feb-23 17:33N 54°59' W 001°18'17 1.7
2015-Feb-23 07:33N 54°49' W 000°53'1817.2
2015-Feb-23 06:30N 54°40' W 000°26'1515.7
2015-Feb-23 05:33N 54°32' W 000°05'1616.0
2015-Feb-23 04:33N 54°23' E 000°18'1616.3
2015-Feb-23 03:33N 54°14' E 000°42'16216.2
2015-Feb-22 17:33N 52°36' E 004°18'1313.1
2015-Feb-22 16:33N 52°28' E 004°35'0 0.0
2015-Feb-22 15:28N 52°28' E 004°35'0 0.0
2015-Feb-22 14:28N 52°28' E 004°35'0 0.0
2015-Feb-22 13:31N 52°28' E 004°35'0 0.0
2015-Feb-22 12:31N 52°28' E 004°35'0 0.0
2015-Feb-22 11:28N 52°28' E 004°35'0 0.0
2015-Feb-22 10:31N 52°28' E 004°35'0 0.0
2015-Feb-22 09:31N 52°28' E 004°35'1 1.0
2015-Feb-22 08:33N 52°28' E 004°34'1616.3
2015-Feb-22 07:33N 52°38' E 004°13'15516.8
2015-Feb-21 22:22N 54°12' E 000°46'1417.5
2015-Feb-21 21:33N 54°19' E 000°26'1817.9
2015-Feb-21 20:33N 54°29' E 000°00'1818.4
2015-Feb-21 19:34N 54°39' W 000°26'1918.8
2015-Feb-21 18:33N 54°49' W 000°54'2018.9
2015-Feb-21 17:30N 55°00' W 001°22'18 1.8
2015-Feb-21 07:28N 54°51' W 000°56'1313.9
2015-Feb-21 06:33N 54°44' W 000°38'1615.9
2015-Feb-21 05:33N 54°35' W 000°15'1615.7
2015-Feb-21 04:33N 54°27' E 000°08'1616.2
2015-Feb-21 03:34N 54°18' E 000°31'  

Dump ship's entire track history